Time;durP1;ratioP1;P1;durP2;ratioP2;P2;SDS_P1;SDS_P2;PMS_P1;PMS_P2;Temp;Humidity;BMP_temperature;BMP_pressure;BME280_temperature;BME280_humidity;BME280_pressure;Samples;Min_cycle;Max_cycle;Signal;HPM_P1;HPM_P2
2022/09/17 00:00:40;;;;;;;1.60;1.37;;;12.30;99.90;;;;;;5007104;28;20190;-89
2022/09/17 00:03:07;;;;;;;1.40;1.00;;;12.30;99.90;;;;;;5011897;28;20629;-89
2022/09/17 00:05:32;;;;;;;1.60;1.00;;;11.70;99.90;;;;;;5019284;28;20188;-88
2022/09/17 00:07:58;;;;;;;1.40;1.30;;;11.50;99.90;;;;;;5014597;28;20558;-89
2022/09/17 00:10:24;;;;;;;1.17;1.07;;;12.30;99.90;;;;;;5013291;28;20182;-87
2022/09/17 00:12:50;;;;;;;2.17;1.30;;;12.40;99.90;;;;;;5015246;28;20416;-89
2022/09/17 00:15:16;;;;;;;1.95;1.20;;;12.30;99.90;;;;;;5010756;28;20642;-88
2022/09/17 00:17:42;;;;;;;2.07;0.97;;;11.70;99.90;;;;;;5012651;28;20237;-89
2022/09/17 00:20:12;;;;;;;3.90;1.03;;;12.00;99.90;;;;;;5008909;28;20473;-89
2022/09/17 00:22:38;;;;;;;1.27;1.00;;;12.00;99.90;;;;;;5013886;28;20458;-89
2022/09/17 00:25:05;;;;;;;1.10;1.00;;;12.30;99.90;;;;;;5014510;28;20207;-88
2022/09/17 00:27:31;;;;;;;1.77;1.13;;;11.90;99.90;;;;;;5014392;28;20190;-89
2022/09/17 00:29:56;;;;;;;1.17;1.07;;;12.50;99.90;;;;;;5012550;28;20182;-88
2022/09/17 00:32:22;;;;;;;1.60;1.50;;;11.90;99.90;;;;;;5008429;28;20432;-88
2022/09/17 00:34:50;;;;;;;1.63;1.53;;;11.90;99.90;;;;;;5012157;28;20214;-88
2022/09/17 00:37:19;;;;;;;2.35;1.60;;;11.50;99.90;;;;;;5014050;28;20669;-88
2022/09/17 00:39:45;;;;;;;1.52;1.25;;;12.20;99.90;;;;;;5011440;28;20191;-89
2022/09/17 00:42:15;;;;;;;2.80;1.40;;;11.80;99.90;;;;;;5005991;28;20335;-88
2022/09/17 00:44:53;;;;;;;1.65;1.10;;;11.80;99.90;;;;;;5014217;28;20207;-89
2022/09/17 00:47:26;;;;;;;1.15;1.05;;;11.80;99.90;;;;;;5019108;28;20175;-88
2022/09/17 00:49:56;;;;;;;2.88;1.02;;;12.00;99.90;;;;;;5011821;28;20171;-88
2022/09/17 00:52:45;;;;;;;1.60;1.30;;;12.10;99.90;;;;;;5010579;28;20190;-89
2022/09/17 00:55:30;;;;;;;1.45;1.33;;;11.70;99.90;;;;;;5015546;28;20179;-88
2022/09/17 00:57:58;;;;;;;1.70;1.38;;;11.70;99.90;;;;;;5010462;28;20674;-88
2022/09/17 01:00:25;;;;;;;1.65;1.08;;;11.90;99.90;;;;;;5014808;28;20878;-88
2022/09/17 01:02:52;;;;;;;1.83;1.63;;;11.70;99.90;;;;;;5010698;28;20214;-88
2022/09/17 01:05:24;;;;;;;2.75;1.30;;;12.20;99.90;;;;;;5014927;28;20186;-88
2022/09/17 01:08:23;;;;;;;1.90;1.23;;;12.00;99.90;;;;;;5013463;28;20260;-88
2022/09/17 01:11:27;;;;;;;1.45;1.35;;;11.60;99.90;;;;;;5021124;28;20218;-88
2022/09/17 01:14:11;;;;;;;1.85;1.23;;;11.80;99.90;;;;;;5024729;28;20221;-87
2022/09/17 01:16:44;;;;;;;1.60;1.35;;;11.70;99.90;;;;;;5013488;28;20187;-87
2022/09/17 01:19:32;;;;;;;1.50;1.40;;;12.00;99.90;;;;;;5011019;28;20650;-88
2022/09/17 01:22:17;;;;;;;1.60;1.50;;;11.70;99.90;;;;;;5009260;28;20186;-88
2022/09/17 01:24:58;;;;;;;2.88;1.30;;;11.40;99.90;;;;;;5007091;28;20209;-88
2022/09/17 01:27:40;;;;;;;1.30;1.20;;;11.10;99.90;;;;;;5014949;28;20181;-87
2022/09/17 01:30:11;;;;;;;2.08;1.25;;;11.30;99.90;;;;;;5020764;28;20730;-89
2022/09/17 01:33:02;;;;;;;1.50;1.20;;;11.50;99.90;;;;;;5019798;28;20197;-89
2022/09/17 01:35:53;;;;;;;1.83;1.60;;;11.70;99.90;;;;;;5024480;28;20233;-89
2022/09/17 01:38:30;;;;;;;1.45;1.35;;;11.60;99.90;;;;;;5009991;28;20270;-88
2022/09/17 01:41:19;;;;;;;1.30;1.20;;;11.10;99.90;;;;;;5012457;28;20275;-87
2022/09/17 01:43:58;;;;;;;1.33;1.20;;;11.60;99.90;;;;;;5004341;28;20307;-88
2022/09/17 01:46:32;;;;;;;2.90;1.30;;;11.60;99.90;;;;;;5015052;28;20182;-86
2022/09/17 01:49:03;;;;;;;1.38;1.23;;;11.70;99.90;;;;;;5010186;28;20195;-88
2022/09/17 01:51:36;;;;;;;2.35;1.63;;;11.30;99.90;;;;;;5012442;28;20181;-88
2022/09/17 01:54:04;;;;;;;1.67;1.58;;;11.80;99.90;;;;;;5010568;28;20210;-88
2022/09/17 01:56:38;;;;;;;1.50;1.40;;;11.20;99.90;;;;;;5008309;28;20689;-88
2022/09/17 01:59:13;;;;;;;3.33;1.60;;;11.50;99.90;;;;;;5011599;28;20201;-87
2022/09/17 02:01:40;;;;;;;1.80;1.50;;;11.60;99.90;;;;;;5005944;28;20297;-88
2022/09/17 02:04:36;;;;;;;1.85;1.40;;;12.10;99.90;;;;;;5015002;28;20208;-88
2022/09/17 02:07:07;;;;;;;2.42;1.55;;;11.70;99.90;;;;;;5012387;28;20178;-88
2022/09/17 02:09:40;;;;;;;1.92;1.60;;;11.50;99.90;;;;;;5012450;28;20182;-88
2022/09/17 02:12:13;;;;;;;2.15;1.58;;;12.00;99.90;;;;;;5009663;28;20263;-89
2022/09/17 02:14:48;;;;;;;2.47;1.60;;;11.90;99.90;;;;;;5011252;28;20205;-89
2022/09/17 02:17:31;;;;;;;1.27;1.17;;;11.80;99.90;;;;;;5009187;28;20193;-88
2022/09/17 02:19:58;;;;;;;2.65;1.58;;;11.80;99.90;;;;;;5011733;28;20187;-88
2022/09/17 02:22:54;;;;;;;2.40;1.60;;;12.00;99.90;;;;;;5012473;28;20208;-88
2022/09/17 02:25:30;;;;;;;2.85;1.75;;;11.60;99.90;;;;;;5009829;28;20201;-88
2022/09/17 02:28:04;;;;;;;1.90;1.42;;;11.70;99.90;;;;;;5003997;28;20177;-88
2022/09/17 02:30:31;;;;;;;3.60;2.10;;;11.70;99.90;;;;;;5015725;28;20188;-89
2022/09/17 02:32:56;;;;;;;2.08;1.48;;;12.10;99.90;;;;;;5010042;28;20190;-88
2022/09/17 02:35:22;;;;;;;2.17;1.30;;;11.80;99.90;;;;;;5007001;28;20193;-88
2022/09/17 02:37:48;;;;;;;7.32;1.88;;;12.00;99.90;;;;;;5017535;28;20319;-88
2022/09/17 02:40:16;;;;;;;2.80;1.42;;;11.70;99.90;;;;;;5012355;28;20179;-88
2022/09/17 02:43:04;;;;;;;1.55;1.40;;;11.80;99.90;;;;;;5012119;28;20208;-87
2022/09/17 02:46:12;;;;;;;2.35;1.40;;;11.70;99.90;;;;;;4994233;28;20324;-88
2022/09/17 02:49:00;;;;;;;2.38;1.40;;;11.80;99.90;;;;;;5009321;28;20197;-87
2022/09/17 02:52:09;;;;;;;2.22;1.88;;;11.20;99.90;;;;;;5011569;28;20280;-88
2022/09/17 02:55:05;;;;;;;1.83;1.52;;;11.70;99.90;;;;;;4977045;28;20234;-88
2022/09/17 02:57:40;;;;;;;1.70;1.60;;;11.80;99.90;;;;;;5021588;28;20184;-88
2022/09/17 03:00:15;;;;;;;3.08;2.05;;;11.70;99.90;;;;;;5004633;28;20176;-88
2022/09/17 03:02:42;;;;;;;2.78;1.70;;;11.50;99.90;;;;;;5013959;28;20228;-89
2022/09/17 03:05:09;;;;;;;1.98;1.70;;;11.60;99.90;;;;;;5009254;28;20694;-89
2022/09/17 03:07:36;;;;;;;2.53;1.80;;;11.50;99.90;;;;;;5015427;28;20601;-89
2022/09/17 03:10:01;;;;;;;3.25;1.45;;;11.50;99.90;;;;;;5012219;28;20171;-88
2022/09/17 03:12:27;;;;;;;4.47;1.60;;;11.50;99.90;;;;;;5012522;28;20308;-89
2022/09/17 03:14:52;;;;;;;2.27;1.47;;;11.80;99.90;;;;;;5003158;28;20200;-89
2022/09/17 03:17:18;;;;;;;2.50;1.40;;;11.80;99.90;;;;;;5009215;28;20186;-89
2022/09/17 03:19:43;;;;;;;5.30;1.40;;;11.40;99.90;;;;;;5018556;28;20193;-88
2022/09/17 03:22:09;;;;;;;1.90;1.47;;;11.30;99.90;;;;;;5011382;28;20206;-88
2022/09/17 03:24:34;;;;;;;2.20;2.00;;;11.90;99.90;;;;;;5010455;28;20699;-88
2022/09/17 03:27:00;;;;;;;2.00;1.80;;;11.80;99.90;;;;;;5015419;28;20198;-89
2022/09/17 03:29:25;;;;;;;1.70;1.60;;;11.70;99.90;;;;;;5015968;28;20547;-88
2022/09/17 03:31:51;;;;;;;2.27;1.50;;;11.60;99.90;;;;;;5014653;28;20187;-89
2022/09/17 03:34:16;;;;;;;2.03;1.30;;;11.80;99.90;;;;;;5013488;28;20231;-88
2022/09/17 03:36:42;;;;;;;1.50;1.40;;;11.60;99.90;;;;;;5011838;28;20186;-89
2022/09/17 03:39:07;;;;;;;2.20;1.60;;;11.20;99.90;;;;;;5015264;28;20172;-88
2022/09/17 03:41:33;;;;;;;4.23;1.73;;;11.20;99.90;;;;;;5014609;28;20197;-88
2022/09/17 03:43:58;;;;;;;2.17;1.50;;;11.30;99.90;;;;;;5008824;28;20216;-89
2022/09/17 03:46:24;;;;;;;2.53;2.33;;;11.40;99.90;;;;;;5015241;28;20251;-89
2022/09/17 03:48:49;;;;;;;4.90;1.93;;;11.10;99.90;;;;;;5013523;28;20189;-88
2022/09/17 03:51:15;;;;;;;1.73;1.40;;;11.40;99.90;;;;;;5015510;28;20192;-88
2022/09/17 03:53:40;;;;;;;2.73;1.73;;;11.50;99.90;;;;;;5012329;28;20245;-88
2022/09/17 03:56:06;;;;;;;2.90;1.90;;;11.30;99.90;;;;;;5015163;28;20224;-88
2022/09/17 03:58:33;;;;;;;2.30;1.50;;;11.30;99.90;;;;;;5011494;28;20277;-88
2022/09/17 04:00:58;;;;;;;2.55;2.00;;;11.20;99.90;;;;;;5014130;28;20562;-87
2022/09/17 04:03:25;;;;;;;5.20;2.40;;;11.40;99.90;;;;;;5020288;28;20333;-88
2022/09/17 04:05:51;;;;;;;2.40;1.42;;;11.30;99.90;;;;;;5005189;28;20179;-86
2022/09/17 04:08:17;;;;;;;4.80;1.73;;;11.30;99.90;;;;;;5010272;28;20318;-86
2022/09/17 04:10:43;;;;;;;2.75;1.48;;;11.00;99.90;;;;;;5007406;28;20189;-87
2022/09/17 04:13:09;;;;;;;2.87;1.37;;;11.20;99.90;;;;;;5006034;28;20205;-87
2022/09/17 04:15:35;;;;;;;3.95;2.10;;;11.50;99.90;;;;;;5014929;28;20185;-86
2022/09/17 04:18:00;;;;;;;2.30;1.70;;;11.40;99.90;;;;;;5014566;28;20540;-86
2022/09/17 04:20:26;;;;;;;3.17;2.47;;;11.40;99.90;;;;;;5016671;28;20474;-85
2022/09/17 04:22:52;;;;;;;2.00;1.60;;;11.00;99.90;;;;;;5007906;28;20450;-85
2022/09/17 04:25:18;;;;;;;2.30;1.37;;;11.40;99.90;;;;;;5012498;28;20193;-86
2022/09/17 04:27:44;;;;;;;3.90;1.57;;;11.10;99.90;;;;;;5014107;28;20444;-86
2022/09/17 04:30:11;;;;;;;5.55;2.30;;;11.40;99.90;;;;;;5006339;28;20674;-86
2022/09/17 04:32:36;;;;;;;2.22;1.50;;;11.30;99.90;;;;;;5012984;28;20184;-87
2022/09/17 04:35:03;;;;;;;3.20;1.60;;;11.40;99.90;;;;;;5024760;28;20291;-86
2022/09/17 04:37:29;;;;;;;3.15;1.50;;;11.00;99.90;;;;;;5012256;28;20589;-87
2022/09/17 04:39:54;;;;;;;1.93;1.50;;;11.50;99.90;;;;;;5021580;28;20205;-86
2022/09/17 04:42:20;;;;;;;2.10;1.53;;;10.80;99.90;;;;;;5012716;28;20579;-85
2022/09/17 04:44:45;;;;;;;2.87;1.60;;;11.30;99.90;;;;;;5009646;28;20200;-87
2022/09/17 04:47:11;;;;;;;1.93;1.63;;;11.10;99.90;;;;;;5014090;28;20195;-87
2022/09/17 04:49:37;;;;;;;3.93;1.37;;;11.40;99.90;;;;;;5012396;28;20193;-86
2022/09/17 04:52:02;;;;;;;3.13;1.70;;;11.00;99.90;;;;;;5013819;28;20181;-85
2022/09/17 04:54:28;;;;;;;2.60;1.70;;;11.40;99.90;;;;;;5010922;28;20209;-87
2022/09/17 04:56:53;;;;;;;3.87;1.77;;;11.50;99.90;;;;;;5010987;28;20187;-86
2022/09/17 04:59:19;;;;;;;4.20;1.73;;;11.30;99.90;;;;;;5014149;28;20180;-87
2022/09/17 05:01:45;;;;;;;4.17;2.10;;;11.60;99.90;;;;;;5014234;28;20220;-89
2022/09/17 05:04:10;;;;;;;3.63;1.60;;;10.70;99.90;;;;;;5011871;28;20208;-88
2022/09/17 05:06:36;;;;;;;3.87;1.70;;;11.30;99.90;;;;;;5011852;28;20732;-88
2022/09/17 05:09:02;;;;;;;9.23;2.20;;;11.50;99.90;;;;;;5013979;28;20434;-88
2022/09/17 05:11:28;;;;;;;4.87;2.40;;;11.20;99.90;;;;;;5029681;28;20679;-88
2022/09/17 05:13:53;;;;;;;3.80;2.03;;;11.10;99.90;;;;;;5019690;28;20281;-90
2022/09/17 05:16:19;;;;;;;2.97;1.67;;;11.30;99.90;;;;;;4995725;28;20489;-89
2022/09/17 05:18:45;;;;;;;4.40;1.70;;;11.20;99.90;;;;;;5011387;28;20442;-89
2022/09/17 05:21:11;;;;;;;1.63;1.50;;;11.70;99.90;;;;;;5013886;28;20190;-90
2022/09/17 05:23:36;;;;;;;3.97;2.33;;;11.00;99.90;;;;;;5013664;28;20217;-90
2022/09/17 05:26:02;;;;;;;5.13;2.23;;;11.40;99.90;;;;;;5008752;28;20629;-90
2022/09/17 05:28:28;;;;;;;3.17;1.93;;;11.20;99.90;;;;;;5015140;28;20195;-89
2022/09/17 05:30:53;;;;;;;1.90;1.63;;;11.40;99.90;;;;;;5013654;28;20204;-90
2022/09/17 05:33:19;;;;;;;3.33;1.60;;;10.80;99.90;;;;;;5013801;28;20468;-89
2022/09/17 05:35:45;;;;;;;4.10;1.87;;;11.10;99.90;;;;;;5012986;28;20196;-89
2022/09/17 05:38:11;;;;;;;2.25;1.85;;;11.00;99.90;;;;;;5010496;28;20207;-88
2022/09/17 05:40:37;;;;;;;2.57;1.80;;;11.40;99.90;;;;;;5012567;28;20642;-88
2022/09/17 05:43:04;;;;;;;2.27;2.03;;;11.20;99.90;;;;;;5012398;28;20210;-89
2022/09/17 05:45:32;;;;;;;8.05;7.07;;;11.50;99.90;;;;;;5013393;28;20557;-89
2022/09/17 05:47:59;;;;;;;6.10;2.40;;;11.20;99.90;;;;;;5011975;28;20180;-89
2022/09/17 05:50:25;;;;;;;3.40;2.00;;;11.30;99.90;;;;;;5013077;28;20285;-89
2022/09/17 05:52:52;;;;;;;2.65;1.70;;;11.70;99.90;;;;;;5013058;28;20278;-88
2022/09/17 05:55:18;;;;;;;2.70;2.20;;;11.40;99.90;;;;;;5009302;28;20208;-88
2022/09/17 05:57:44;;;;;;;4.30;1.95;;;10.80;99.90;;;;;;5009794;28;20267;-88
2022/09/17 06:00:10;;;;;;;2.30;2.00;;;10.90;99.90;;;;;;5013366;28;20644;-88
2022/09/17 06:02:36;;;;;;;5.38;2.38;;;11.30;99.90;;;;;;5003634;28;20207;-88
2022/09/17 06:05:03;;;;;;;2.80;1.60;;;11.20;99.90;;;;;;5011889;28;20200;-89
2022/09/17 06:07:29;;;;;;;3.15;2.20;;;11.40;99.90;;;;;;5012466;28;20197;-89
2022/09/17 06:09:54;;;;;;;2.60;2.30;;;11.80;99.90;;;;;;5011996;28;20182;-86
2022/09/17 06:12:20;;;;;;;4.40;2.10;;;11.90;99.90;;;;;;5012964;28;20443;-87
2022/09/17 06:14:46;;;;;;;2.80;2.00;;;12.30;99.90;;;;;;5014640;28;20231;-86
2022/09/17 06:17:12;;;;;;;5.43;2.08;;;12.00;99.90;;;;;;5012335;28;20466;-86
2022/09/17 06:19:37;;;;;;;3.90;2.03;;;12.20;99.90;;;;;;5021244;28;20711;-88
2022/09/17 06:22:04;;;;;;;2.67;2.00;;;12.30;99.90;;;;;;5014360;28;20313;-87
2022/09/17 06:24:31;;;;;;;4.35;2.22;;;12.20;99.90;;;;;;5009402;28;20228;-79
2022/09/17 06:26:57;;;;;;;5.38;2.20;;;12.00;99.90;;;;;;5013250;28;20180;-85
2022/09/17 06:29:22;;;;;;;3.17;2.60;;;11.90;99.90;;;;;;5014638;28;20200;-85
2022/09/17 06:31:48;;;;;;;5.67;2.40;;;11.80;99.90;;;;;;5011777;28;20642;-85
2022/09/17 06:34:14;;;;;;;2.50;2.00;;;12.10;99.90;;;;;;5006259;28;20224;-96
2022/09/17 06:36:39;;;;;;;5.03;2.17;;;11.70;99.90;;;;;;5018374;28;20187;-96
2022/09/17 06:39:05;;;;;;;7.77;2.90;;;12.60;99.90;;;;;;5048060;22;20885;-70
2022/09/17 06:41:32;;;;;;;3.40;2.97;;;12.10;99.90;;;;;;5049652;28;20178;-71
2022/09/17 06:43:57;;;;;;;5.05;2.80;;;12.30;99.90;;;;;;5035579;28;20218;-72
2022/09/17 06:46:23;;;;;;;2.60;1.83;;;12.50;99.90;;;;;;5038528;28;20552;-68
2022/09/17 06:48:48;;;;;;;6.17;2.73;;;12.50;99.90;;;;;;5043484;28;20181;-68
2022/09/17 06:51:14;;;;;;;7.03;2.93;;;12.50;99.90;;;;;;5042849;28;20737;-69
2022/09/17 06:53:40;;;;;;;2.60;2.27;;;12.70;99.90;;;;;;5043462;28;20182;-65
2022/09/17 06:56:07;;;;;;;5.07;2.23;;;12.60;99.90;;;;;;5041393;28;20209;-66
2022/09/17 06:58:36;;;;;;;3.72;2.45;;;12.30;99.90;;;;;;5046395;28;20454;-63
2022/09/17 07:01:03;;;;;;;2.88;1.95;;;12.70;99.90;;;;;;5042912;28;20264;-65
2022/09/17 07:03:30;;;;;;;3.95;2.60;;;12.60;99.90;;;;;;5041844;28;20212;-64
2022/09/17 07:05:57;;;;;;;2.55;1.90;;;12.70;99.90;;;;;;5046864;28;20232;-65
2022/09/17 07:08:24;;;;;;;4.03;2.33;;;12.70;99.90;;;;;;5048671;28;20543;-68
2022/09/17 07:10:50;;;;;;;2.90;2.20;;;12.90;99.90;;;;;;5041969;28;20182;-67
2022/09/17 07:13:16;;;;;;;2.55;2.10;;;12.80;99.90;;;;;;5040065;28;20182;-64
2022/09/17 07:15:42;;;;;;;4.20;2.30;;;12.80;99.90;;;;;;5046383;28;20201;-68
2022/09/17 07:18:11;;;;;;;4.10;2.40;;;12.80;99.90;;;;;;5048595;28;20185;-75
2022/09/17 07:20:38;;;;;;;3.97;2.20;;;12.80;99.90;;;;;;5043693;28;20268;-73
2022/09/17 07:23:04;;;;;;;4.72;2.42;;;12.70;99.90;;;;;;5048414;28;20208;-71
2022/09/17 07:25:29;;;;;;;6.60;2.47;;;12.60;99.90;;;;;;5047826;28;20208;-70
2022/09/17 07:27:55;;;;;;;4.87;2.63;;;12.50;99.90;;;;;;5044327;28;20193;-64
2022/09/17 07:30:21;;;;;;;3.00;1.97;;;12.40;99.90;;;;;;5043464;28;20193;-65
2022/09/17 07:32:46;;;;;;;3.63;2.80;;;12.30;99.90;;;;;;5044120;28;20476;-65
2022/09/17 07:35:12;;;;;;;2.83;2.53;;;12.20;99.90;;;;;;5048147;28;20242;-64
2022/09/17 07:37:38;;;;;;;2.70;2.50;;;12.20;99.90;;;;;;5043312;28;20243;-65
2022/09/17 07:40:07;;;;;;;3.67;2.60;;;12.00;99.90;;;;;;5049482;28;20513;-64
2022/09/17 07:42:33;;;;;;;2.95;2.58;;;12.40;99.90;;;;;;5037386;28;20479;-64
2022/09/17 07:44:59;;;;;;;2.53;2.33;;;12.20;99.90;;;;;;5040216;28;20241;-63
2022/09/17 07:47:25;;;;;;;3.70;2.50;;;12.30;99.90;;;;;;5044324;28;20427;-62
2022/09/17 07:49:50;;;;;;;3.60;2.30;;;11.70;99.90;;;;;;5049009;28;20184;-63
2022/09/17 07:52:16;;;;;;;3.30;2.33;;;12.00;99.90;;;;;;5044236;28;20185;-63
2022/09/17 07:54:41;;;;;;;3.03;2.60;;;12.00;99.90;;;;;;5043478;28;20267;-62
2022/09/17 07:57:07;;;;;;;3.43;2.90;;;12.10;99.90;;;;;;5044325;28;20555;-61
2022/09/17 07:59:32;;;;;;;3.33;2.67;;;11.70;99.90;;;;;;5041902;28;20183;-63
2022/09/17 08:01:58;;;;;;;5.00;2.90;;;12.00;99.90;;;;;;5046179;28;20211;-63
2022/09/17 08:04:24;;;;;;;2.20;1.73;;;11.80;99.90;;;;;;5050240;28;20208;-64
2022/09/17 08:06:50;;;;;;;2.80;2.50;;;11.60;99.90;;;;;;5044288;28;20438;-64
2022/09/17 08:09:16;;;;;;;2.43;2.23;;;11.60;99.90;;;;;;5051163;28;20433;-64
2022/09/17 08:11:42;;;;;;;3.25;2.55;;;11.90;99.90;;;;;;5044612;28;20660;-64
2022/09/17 08:14:14;;;;;;;3.20;2.40;;;11.70;99.90;;;;;;5044062;28;20221;-63
2022/09/17 08:16:40;;;;;;;3.65;2.65;;;12.10;99.90;;;;;;5042409;28;20184;-64
2022/09/17 08:19:09;;;;;;;3.17;2.43;;;11.90;99.90;;;;;;5046350;28;20578;-64
2022/09/17 08:21:35;;;;;;;4.72;2.42;;;12.20;99.90;;;;;;5042548;28;20520;-64
2022/09/17 08:24:01;;;;;;;2.85;2.00;;;12.10;99.90;;;;;;5050897;28;20211;-64
2022/09/17 08:26:26;;;;;;;3.53;2.50;;;11.90;99.90;;;;;;5041546;28;20182;-64
2022/09/17 08:28:55;;;;;;;4.67;3.13;;;12.20;99.90;;;;;;5050065;28;20264;-64
2022/09/17 08:31:21;;;;;;;2.88;2.55;;;12.20;99.90;;;;;;5042208;28;20185;-64
2022/09/17 08:33:47;;;;;;;3.40;3.10;;;12.60;99.90;;;;;;5053567;28;20186;-64
2022/09/17 08:36:15;;;;;;;3.90;2.90;;;12.60;99.90;;;;;;5045946;28;20194;-64
2022/09/17 08:38:41;;;;;;;3.55;2.80;;;12.60;99.90;;;;;;5045053;28;20208;-64
2022/09/17 08:41:10;;;;;;;2.53;2.33;;;12.50;99.90;;;;;;5044719;28;20188;-63
2022/09/17 08:43:46;;;;;;;3.75;2.92;;;12.80;99.90;;;;;;5051215;28;20228;-64
2022/09/17 08:46:12;;;;;;;3.45;2.70;;;12.50;99.90;;;;;;5038658;28;20189;-64
2022/09/17 08:49:02;;;;;;;5.90;2.60;;;12.70;99.90;;;;;;5035399;28;20589;-64
2022/09/17 08:51:34;;;;;;;7.63;3.60;;;12.60;99.90;;;;;;5033104;28;20198;-64
2022/09/17 08:54:12;;;;;;;4.47;3.45;;;12.80;99.90;;;;;;5049718;28;20201;-64
2022/09/17 08:56:40;;;;;;;7.07;2.53;;;12.90;99.90;;;;;;5049711;28;20194;-64
2022/09/17 08:59:33;;;;;;;4.35;2.58;;;13.10;99.90;;;;;;5042073;28;20568;-64
2022/09/17 09:02:13;;;;;;;6.85;2.75;;;13.40;99.90;;;;;;5049235;28;20212;-64
2022/09/17 09:04:54;;;;;;;4.15;2.80;;;13.60;99.90;;;;;;5041857;28;20579;-64
2022/09/17 09:07:27;;;;;;;3.97;2.55;;;14.00;99.90;;;;;;5044482;28;20177;-63
2022/09/17 09:10:13;;;;;;;5.43;2.78;;;14.10;99.90;;;;;;5040936;28;20278;-64
2022/09/17 09:12:40;;;;;;;3.42;2.25;;;14.00;99.90;;;;;;5049704;28;20670;-64
2022/09/17 09:15:22;;;;;;;4.05;2.20;;;14.00;99.90;;;;;;5044215;28;20209;-64
2022/09/17 09:17:49;;;;;;;4.90;2.28;;;14.10;99.90;;;;;;5045009;28;20181;-64
2022/09/17 09:20:47;;;;;;;5.57;2.80;;;14.10;99.90;;;;;;5043000;28;20181;-64
2022/09/17 09:23:52;;;;;;;4.20;3.30;;;14.00;99.90;;;;;;5024936;28;20217;-63
2022/09/17 09:26:20;;;;;;;2.47;2.20;;;14.30;99.90;;;;;;5032570;28;20189;-64
2022/09/17 09:29:01;;;;;;;5.97;2.70;;;14.00;99.90;;;;;;5038413;28;20264;-64
2022/09/17 09:31:45;;;;;;;6.57;2.65;;;14.10;99.90;;;;;;5041617;28;20335;-64
2022/09/17 09:34:12;;;;;;;3.40;2.33;;;14.20;99.90;;;;;;5038557;28;20215;-64
2022/09/17 09:36:38;;;;;;;7.10;2.80;;;14.30;99.90;;;;;;5045662;28;20198;-64
2022/09/17 09:39:19;;;;;;;4.77;2.43;;;14.40;99.90;;;;;;5035682;28;20335;-64
2022/09/17 09:41:53;;;;;;;4.47;2.38;;;14.20;99.90;;;;;;5038615;28;20459;-64
2022/09/17 09:44:19;;;;;;;3.60;2.63;;;14.30;99.90;;;;;;5047593;28;20240;-64
2022/09/17 09:47:06;;;;;;;3.13;2.50;;;14.20;99.90;;;;;;5043656;28;20253;-64
2022/09/17 09:49:57;;;;;;;7.15;3.97;;;14.30;99.90;;;;;;5045484;28;20214;-65
2022/09/17 09:52:41;;;;;;;6.07;2.28;;;14.70;99.90;;;;;;5040508;28;20650;-65
2022/09/17 09:55:33;;;;;;;4.03;2.85;;;14.50;99.90;;;;;;5048486;28;20663;-64
2022/09/17 09:58:16;;;;;;;4.63;3.00;;;14.60;99.90;;;;;;5043644;28;20191;-65
2022/09/17 10:00:42;;;;;;;4.80;2.67;;;14.40;99.90;;;;;;5042134;28;20178;-65
2022/09/17 10:03:21;;;;;;;10.95;3.58;;;14.40;99.90;;;;;;5048757;28;20197;-65
2022/09/17 10:05:58;;;;;;;4.85;2.92;;;14.50;99.90;;;;;;5044672;28;20237;-65
2022/09/17 10:08:24;;;;;;;6.53;2.67;;;14.20;99.90;;;;;;5039123;28;20184;-64
2022/09/17 10:10:53;;;;;;;3.95;2.75;;;14.30;99.90;;;;;;5047147;28;20189;-61
2022/09/17 10:13:19;;;;;;;6.28;2.90;;;14.40;99.90;;;;;;5039428;28;20687;-69
2022/09/17 10:15:45;;;;;;;3.35;2.40;;;14.80;99.90;;;;;;5037387;28;20208;-66
2022/09/17 10:18:16;;;;;;;4.30;2.37;;;15.20;99.90;;;;;;5047508;28;20173;-71
2022/09/17 10:21:18;;;;;;;4.25;3.85;;;15.10;99.90;;;;;;5054482;28;20442;-67
2022/09/17 10:23:45;;;;;;;3.63;2.30;;;15.40;99.90;;;;;;5045627;28;20243;-66
2022/09/17 10:26:23;;;;;;;6.47;2.40;;;15.50;98.30;;;;;;5046182;28;20227;-65
2022/09/17 10:29:01;;;;;;;3.30;2.30;;;15.40;98.20;;;;;;5046287;28;20268;-69
2022/09/17 10:31:26;;;;;;;5.32;3.63;;;15.60;99.90;;;;;;5048645;28;20915;-63
2022/09/17 10:34:01;;;;;;;4.07;2.20;;;15.50;97.50;;;;;;5042052;28;20244;-63
2022/09/17 10:36:44;;;;;;;4.43;2.25;;;15.70;97.60;;;;;;5039739;28;20186;-63
2022/09/17 10:39:43;;;;;;;3.25;2.50;;;16.00;96.70;;;;;;5042607;28;20713;-63
2022/09/17 10:42:17;;;;;;;4.45;2.20;;;15.80;97.10;;;;;;5042731;28;20239;-63
2022/09/17 10:44:53;;;;;;;3.47;2.17;;;15.60;96.10;;;;;;5047640;28;20205;-63
2022/09/17 10:47:36;;;;;;;3.08;1.80;;;15.70;96.60;;;;;;5038282;28;20255;-63
2022/09/17 10:50:15;;;;;;;4.50;2.42;;;15.80;95.20;;;;;;5040562;28;20194;-69
2022/09/17 10:52:47;;;;;;;3.67;1.90;;;16.10;95.20;;;;;;5041057;28;20189;-65
2022/09/17 10:55:36;;;;;;;3.92;2.13;;;16.10;95.40;;;;;;5043045;28;20205;-69
2022/09/17 10:58:06;;;;;;;3.22;2.40;;;16.10;95.80;;;;;;5046055;28;20193;-65
2022/09/17 11:00:37;;;;;;;2.80;1.55;;;16.10;95.80;;;;;;5047447;28;20197;-66
2022/09/17 11:03:25;;;;;;;3.10;1.75;;;16.20;93.40;;;;;;5034496;28;20248;-66
2022/09/17 11:06:06;;;;;;;2.33;2.10;;;16.00;93.50;;;;;;5039570;28;20576;-66
2022/09/17 11:08:45;;;;;;;3.40;1.73;;;16.10;93.40;;;;;;5046435;28;20185;-66
2022/09/17 11:11:21;;;;;;;4.60;2.85;;;16.20;93.40;;;;;;5040890;28;20186;-66
2022/09/17 11:13:56;;;;;;;3.58;1.92;;;16.20;93.50;;;;;;5046823;28;20178;-66
2022/09/17 11:16:35;;;;;;;2.22;2.03;;;16.30;93.00;;;;;;5043038;28;20202;-65
2022/09/17 11:19:22;;;;;;;4.75;2.00;;;16.20;92.40;;;;;;5043170;28;20217;-66
2022/09/17 11:21:55;;;;;;;3.97;1.83;;;15.90;92.80;;;;;;5044981;28;20578;-66
2022/09/17 11:24:50;;;;;;;3.95;1.80;;;16.30;92.90;;;;;;5043179;28;20221;-66
2022/09/17 11:27:47;;;;;;;1.70;1.60;;;16.60;93.80;;;;;;5036472;28;20239;-65
2022/09/17 11:30:17;;;;;;;2.10;1.60;;;16.50;93.40;;;;;;5042563;28;20725;-66
2022/09/17 11:33:07;;;;;;;3.50;2.10;;;16.50;91.60;;;;;;5047010;28;20195;-65
2022/09/17 11:35:58;;;;;;;1.60;1.33;;;16.70;91.20;;;;;;5046595;28;20213;-66
2022/09/17 11:38:38;;;;;;;4.30;1.88;;;16.80;90.30;;;;;;5042193;28;20262;-66
2022/09/17 11:41:12;;;;;;;1.95;1.33;;;16.40;89.40;;;;;;5042413;28;20235;-66
2022/09/17 11:43:44;;;;;;;1.95;1.50;;;16.60;90.00;;;;;;5044677;28;20237;-66
2022/09/17 11:46:24;;;;;;;2.88;2.10;;;16.60;90.20;;;;;;5041127;28;20221;-67
2022/09/17 11:49:04;;;;;;;1.80;1.70;;;16.90;90.70;;;;;;5048119;28;20181;-67
2022/09/17 11:51:50;;;;;;;3.33;1.60;;;16.80;90.00;;;;;;5042773;28;20186;-67
2022/09/17 11:54:27;;;;;;;2.83;1.27;;;16.80;88.10;;;;;;5048684;28;20209;-67
2022/09/17 11:57:04;;;;;;;2.85;1.90;;;17.00;86.80;;;;;;5044699;28;20192;-67
2022/09/17 11:59:48;;;;;;;2.95;1.60;;;17.00;89.30;;;;;;5045116;28;20355;-67
2022/09/17 12:02:19;;;;;;;3.70;1.50;;;17.30;85.40;;;;;;5045696;28;20185;-67
2022/09/17 12:05:20;;;;;;;3.45;1.75;;;17.50;85.20;;;;;;5048919;28;20875;-73
2022/09/17 12:07:58;;;;;;;5.25;1.52;;;17.70;87.00;;;;;;5041223;28;20189;-72
2022/09/17 12:10:48;;;;;;;4.40;2.00;;;17.60;84.90;;;;;;5040202;28;20209;-73
2022/09/17 12:13:51;;;;;;;2.92;1.35;;;17.80;83.10;;;;;;5051616;28;20190;-67
2022/09/17 12:16:27;;;;;;;2.80;2.10;;;17.50;85.40;;;;;;5024364;28;20630;-67
2022/09/17 12:18:57;;;;;;;2.90;2.70;;;17.50;90.10;;;;;;5045017;28;20243;-67
2022/09/17 12:21:43;;;;;;;5.90;2.17;;;17.20;92.60;;;;;;5046773;28;20197;-67
2022/09/17 12:24:27;;;;;;;3.28;2.28;;;16.60;93.70;;;;;;5049337;28;20221;-66
2022/09/17 12:26:58;;;;;;;3.22;1.83;;;16.60;95.30;;;;;;5045951;28;20184;-68
2022/09/17 12:29:46;;;;;;;2.70;1.50;;;16.50;92.40;;;;;;5065219;28;20236;-65
2022/09/17 12:32:30;;;;;;;2.30;1.65;;;16.60;92.80;;;;;;5035506;28;20181;-65
2022/09/17 12:35:05;;;;;;;3.00;1.55;;;16.10;94.00;;;;;;5047969;28;20251;-65
2022/09/17 12:37:55;;;;;;;2.35;1.60;;;16.10;93.30;;;;;;5048443;28;20181;-65
2022/09/17 12:40:50;;;;;;;2.75;1.23;;;16.20;94.40;;;;;;5044913;28;20244;-65
2022/09/17 12:43:34;;;;;;;3.40;3.10;;;16.30;91.90;;;;;;5041640;28;20224;-65
2022/09/17 12:46:14;;;;;;;3.45;1.70;;;16.50;93.50;;;;;;5049273;28;20226;-65
2022/09/17 12:49:18;;;;;;;2.80;1.42;;;16.30;91.90;;;;;;5039795;28;20188;-65
2022/09/17 12:52:11;;;;;;;3.65;1.42;;;16.00;94.20;;;;;;5051282;28;20181;-65
2022/09/17 12:55:01;;;;;;;2.10;1.30;;;15.70;95.20;;;;;;5047770;28;20235;-65
2022/09/17 12:57:59;;;;;;;2.25;1.45;;;15.20;96.10;;;;;;5040289;28;20193;-65
2022/09/17 13:00:25;;;;;;;3.05;2.25;;;15.30;99.10;;;;;;5028220;28;20340;-65
2022/09/17 13:03:23;;;;;;;3.65;2.60;;;15.00;99.40;;;;;;5049064;28;20259;-65
2022/09/17 13:06:04;;;;;;;3.15;1.42;;;15.20;98.90;;;;;;5042133;28;20218;-65
2022/09/17 13:09:06;;;;;;;8.27;1.42;;;15.00;99.10;;;;;;5044756;28;20229;-65
2022/09/17 13:11:50;;;;;;;14.25;2.67;;;15.20;99.60;;;;;;5032273;28;20292;-65
2022/09/17 13:14:53;;;;;;;1.98;1.40;;;14.60;99.90;;;;;;5043302;28;20198;-65
2022/09/17 13:17:42;;;;;;;2.85;1.50;;;14.30;99.90;;;;;;5043459;28;20197;-66